createdAt,value
2023-05-16T00:00:39.951Z,0.00
2023-05-16T00:01:40.212Z,0.00
2023-05-16T00:02:40.672Z,0.00
2023-05-16T00:03:40.869Z,0.00
2023-05-16T00:04:41.069Z,0.00
2023-05-16T00:05:41.344Z,0.00
2023-05-16T00:06:41.580Z,0.00
2023-05-16T00:07:41.828Z,0.00
2023-05-16T00:08:42.075Z,0.00
2023-05-16T00:09:42.350Z,0.00
2023-05-16T00:10:42.628Z,0.00
2023-05-16T00:11:42.864Z,0.00
2023-05-16T00:12:43.113Z,0.00
2023-05-16T00:13:43.385Z,0.00
2023-05-16T00:14:43.623Z,0.00
2023-05-16T00:15:43.951Z,0.00
2023-05-16T00:16:44.213Z,0.00
2023-05-16T00:17:44.505Z,0.00
2023-05-16T00:18:44.723Z,0.00
2023-05-16T00:19:45.053Z,0.00
2023-05-16T00:20:45.326Z,0.00
2023-05-16T00:21:45.606Z,0.00
2023-05-16T00:22:45.859Z,0.00
2023-05-16T00:23:46.118Z,0.00
2023-05-16T00:24:46.365Z,0.00
2023-05-16T00:25:47.623Z,0.00
2023-05-16T00:26:46.866Z,0.00
2023-05-16T00:27:47.118Z,0.00
2023-05-16T00:28:47.338Z,0.00
2023-05-16T00:29:47.701Z,0.00
2023-05-16T00:30:48.099Z,0.00
2023-05-16T00:31:48.357Z,0.00
2023-05-16T00:32:48.743Z,0.00
2023-05-16T00:33:48.932Z,0.00
2023-05-16T00:34:49.231Z,0.00
2023-05-16T00:35:49.531Z,0.00
2023-05-16T00:36:49.763Z,0.00
2023-05-16T00:37:50.127Z,0.00
2023-05-16T00:38:50.358Z,0.00
2023-05-16T00:39:50.727Z,0.00
2023-05-16T00:40:50.980Z,0.00
2023-05-16T00:41:51.307Z,0.00
2023-05-16T00:42:51.541Z,0.00
2023-05-16T00:43:51.913Z,0.00
2023-05-16T00:44:52.232Z,0.00
2023-05-16T00:45:52.630Z,0.00
2023-05-16T00:46:52.899Z,0.00
2023-05-16T00:47:53.266Z,0.00
2023-05-16T00:48:53.501Z,0.00
2023-05-16T00:49:53.861Z,0.00
2023-05-16T00:50:54.121Z,0.00
2023-05-16T00:51:54.350Z,0.00
2023-05-16T00:52:54.701Z,0.00
2023-05-16T00:53:55.070Z,0.00
2023-05-16T00:54:55.306Z,0.00
2023-05-16T00:55:55.661Z,0.00
2023-05-16T00:56:55.894Z,0.00
2023-05-16T00:57:56.263Z,0.00
2023-05-16T00:58:56.504Z,0.00
2023-05-16T00:59:56.767Z,0.00
2023-05-16T01:00:57.012Z,0.00
2023-05-16T01:01:57.381Z,0.00
2023-05-16T01:02:57.726Z,0.00
2023-05-16T01:03:58.112Z,0.00
2023-05-16T01:04:58.169Z,0.00
2023-05-16T01:05:58.506Z,0.00
2023-05-16T01:06:58.816Z,0.00
2023-05-16T01:07:59.069Z,0.00
2023-05-16T01:08:59.302Z,0.00
2023-05-16T01:09:59.676Z,0.00
2023-05-16T01:10:59.940Z,0.00
2023-05-16T01:12:00.183Z,0.00
2023-05-16T01:13:00.416Z,0.00
2023-05-16T01:14:00.760Z,0.00
2023-05-16T01:15:00.994Z,0.00
2023-05-16T01:16:01.378Z,0.00
2023-05-16T01:17:01.592Z,0.00
2023-05-16T01:18:02.079Z,0.00
2023-05-16T01:19:02.243Z,0.00
2023-05-16T01:20:02.458Z,0.00
2023-05-16T01:21:02.830Z,0.00
2023-05-16T01:22:03.062Z,0.00
2023-05-16T01:23:03.304Z,0.00
2023-05-16T01:24:03.672Z,0.00
2023-05-16T01:25:03.914Z,0.00
2023-05-16T01:26:04.185Z,0.00
2023-05-16T01:27:04.459Z,0.00
2023-05-16T01:28:04.695Z,0.00
2023-05-16T01:29:04.948Z,0.00
2023-05-16T01:30:05.301Z,0.00
2023-05-16T01:31:05.596Z,0.00
2023-05-16T01:32:05.865Z,0.00
2023-05-16T01:33:06.243Z,0.00
2023-05-16T01:34:06.371Z,0.00
2023-05-16T01:35:06.730Z,0.00
2023-05-16T01:36:06.982Z,0.00
2023-05-16T01:37:07.331Z,0.00
2023-05-16T01:38:07.673Z,0.00
2023-05-16T01:39:08.038Z,0.00
2023-05-16T01:40:08.276Z,0.00
2023-05-16T01:41:08.644Z,0.00
2023-05-16T01:42:08.884Z,0.00
2023-05-16T01:43:09.252Z,0.00
2023-05-16T01:44:09.487Z,0.00
2023-05-16T01:45:09.851Z,0.00
2023-05-16T01:46:10.100Z,0.00
2023-05-16T01:47:10.605Z,0.00
2023-05-16T01:48:10.853Z,0.00
2023-05-16T01:49:11.118Z,0.00
2023-05-16T01:50:11.370Z,0.00
2023-05-16T01:51:11.744Z,0.00
2023-05-16T01:52:11.974Z,0.00
2023-05-16T01:53:12.336Z,0.00
2023-05-16T01:54:12.686Z,0.00
2023-05-16T01:55:12.973Z,0.00
2023-05-16T01:56:13.228Z,0.00
2023-05-16T01:57:13.492Z,0.00
2023-05-16T01:58:13.759Z,0.00
2023-05-16T01:59:14.113Z,0.00
2023-05-16T02:00:14.478Z,0.00
2023-05-16T02:01:14.779Z,0.00
2023-05-16T02:02:15.022Z,0.00
2023-05-16T02:03:15.598Z,0.00
2023-05-16T02:04:15.820Z,0.00
2023-05-16T02:05:15.930Z,0.00
2023-05-16T02:06:16.349Z,0.00
2023-05-16T02:07:16.580Z,0.00
2023-05-16T02:08:16.832Z,0.00
2023-05-16T02:09:17.192Z,0.00
2023-05-16T02:10:18.378Z,0.00
2023-05-16T02:11:17.803Z,0.00
2023-05-16T02:12:18.082Z,0.00
2023-05-16T02:13:18.430Z,0.00
2023-05-16T02:14:18.684Z,0.00
2023-05-16T02:15:19.070Z,0.00
2023-05-16T02:16:19.357Z,0.00
2023-05-16T02:17:19.654Z,0.00
2023-05-16T02:18:19.895Z,0.00
2023-05-16T02:19:20.393Z,0.00
2023-05-16T02:20:20.577Z,0.00
2023-05-16T02:21:20.959Z,0.00
2023-05-16T02:22:21.213Z,0.00
2023-05-16T02:23:21.592Z,0.00
2023-05-16T02:24:21.935Z,0.00
2023-05-16T02:25:22.294Z,0.00
2023-05-16T02:26:22.548Z,0.00
2023-05-16T02:27:22.936Z,0.00
2023-05-16T02:28:23.132Z,0.00
2023-05-16T02:29:23.519Z,0.00
2023-05-16T02:30:23.775Z,0.00
2023-05-16T02:31:24.105Z,0.00
2023-05-16T02:32:24.428Z,0.00
2023-05-16T02:33:24.702Z,0.00
2023-05-16T02:34:24.984Z,0.00
2023-05-16T02:35:25.447Z,0.00
2023-05-16T02:36:25.548Z,0.00
2023-05-16T02:37:25.844Z,0.00
2023-05-16T02:38:26.106Z,0.00
2023-05-16T02:39:26.358Z,0.00
2023-05-16T02:40:26.624Z,0.00
2023-05-16T02:41:26.918Z,0.00
2023-05-16T02:42:27.165Z,0.00
2023-05-16T02:43:27.429Z,0.00
2023-05-16T02:44:27.678Z,0.00
2023-05-16T02:45:28.294Z,0.00
2023-05-16T02:46:28.420Z,0.00
2023-05-16T02:47:28.703Z,0.00
2023-05-16T02:48:28.888Z,0.00
2023-05-16T02:49:29.158Z,0.00
2023-05-16T02:50:29.404Z,0.00
2023-05-16T02:51:29.797Z,0.00
2023-05-16T02:52:30.048Z,0.00
2023-05-16T02:53:30.420Z,0.00
2023-05-16T02:54:30.655Z,0.00
2023-05-16T02:55:31.037Z,0.00
2023-05-16T02:56:31.286Z,0.00
2023-05-16T02:57:31.577Z,0.00
2023-05-16T02:58:31.811Z,0.00
2023-05-16T02:59:32.077Z,0.00
2023-05-16T03:00:32.341Z,0.00
2023-05-16T03:01:32.782Z,0.00
2023-05-16T03:02:33.060Z,0.00
2023-05-16T03:03:33.396Z,0.00
2023-05-16T03:04:33.589Z,0.00
2023-05-16T03:05:33.974Z,0.00
2023-05-16T03:06:34.198Z,0.00
2023-05-16T03:07:34.551Z,0.00
2023-05-16T03:08:34.909Z,0.00
2023-05-16T03:09:35.160Z,0.00
2023-05-16T03:10:35.414Z,0.00
2023-05-16T03:11:36.893Z,0.00
2023-05-16T03:12:35.956Z,0.00
2023-05-16T03:13:36.322Z,0.00
2023-05-16T03:14:36.563Z,5.62
2023-05-16T03:15:36.950Z,5.62
2023-05-16T03:16:37.288Z,5.62
2023-05-16T03:17:37.647Z,5.62
2023-05-16T03:18:37.917Z,5.62
2023-05-16T03:19:38.133Z,5.62
2023-05-16T03:20:38.380Z,5.62
2023-05-16T03:21:38.759Z,5.62
2023-05-16T03:22:39.012Z,11.25
2023-05-16T03:23:39.368Z,11.25
2023-05-16T03:24:39.620Z,11.25
2023-05-16T03:25:39.978Z,11.25
2023-05-16T03:26:40.261Z,11.25
2023-05-16T03:27:40.494Z,11.25
2023-05-16T03:28:40.842Z,11.25
2023-05-16T03:29:41.210Z,11.25
2023-05-16T03:30:41.466Z,11.25
2023-05-16T03:31:41.813Z,16.88
2023-05-16T03:32:42.117Z,16.88
2023-05-16T03:33:42.369Z,16.88
2023-05-16T03:34:42.633Z,16.88
2023-05-16T03:35:42.905Z,16.88
2023-05-16T03:36:43.238Z,16.88
2023-05-16T03:37:43.606Z,16.88
2023-05-16T03:38:43.855Z,16.88
2023-05-16T03:39:44.236Z,16.88
2023-05-16T03:40:44.490Z,16.88
2023-05-16T03:41:44.867Z,16.88
2023-05-16T03:42:45.114Z,16.88
2023-05-16T03:43:45.485Z,16.88
2023-05-16T03:44:45.741Z,16.88
2023-05-16T03:45:46.267Z,22.50
2023-05-16T03:46:46.381Z,22.50
2023-05-16T03:47:46.713Z,22.50
2023-05-16T03:48:46.941Z,22.50
2023-05-16T03:49:47.326Z,22.50
2023-05-16T03:50:47.553Z,22.50
2023-05-16T03:51:47.925Z,16.88
2023-05-16T03:52:48.173Z,22.50
2023-05-16T03:53:48.529Z,22.50
2023-05-16T03:54:48.876Z,22.50
2023-05-16T03:55:49.284Z,22.50
2023-05-16T03:56:49.497Z,28.12
2023-05-16T03:57:49.746Z,28.12
2023-05-16T03:58:50.141Z,28.12
2023-05-16T03:59:50.418Z,28.12
2023-05-16T04:00:50.677Z,28.12
2023-05-16T04:01:51.113Z,33.75
2023-05-16T04:02:51.444Z,33.75
2023-05-16T04:03:51.707Z,28.12
2023-05-16T04:04:51.945Z,28.12
2023-05-16T04:05:52.220Z,33.75
2023-05-16T04:06:52.461Z,33.75
2023-05-16T04:07:52.733Z,33.75
2023-05-16T04:08:52.991Z,39.38
2023-05-16T04:09:53.258Z,39.38
2023-05-16T04:10:53.513Z,39.38
2023-05-16T04:11:53.900Z,39.38
2023-05-16T04:12:54.146Z,39.38
2023-05-16T04:13:54.608Z,33.75
2023-05-16T04:14:54.816Z,33.75
2023-05-16T04:15:55.207Z,39.38
2023-05-16T04:16:55.535Z,39.38
2023-05-16T04:17:55.853Z,39.38
2023-05-16T04:18:56.144Z,39.38
2023-05-16T04:19:56.389Z,39.38
2023-05-16T04:20:56.649Z,39.38
2023-05-16T04:21:56.925Z,45.00
2023-05-16T04:22:57.169Z,45.00
2023-05-16T04:23:57.538Z,45.00
2023-05-16T04:24:57.793Z,45.00
2023-05-16T04:25:58.083Z,45.00
2023-05-16T04:26:58.395Z,45.00
2023-05-16T04:27:58.647Z,45.00
2023-05-16T04:29:00.198Z,50.62
2023-05-16T04:29:59.321Z,45.00
2023-05-16T04:30:59.704Z,45.00
2023-05-16T04:32:00.361Z,45.00
2023-05-16T04:33:00.395Z,50.62
2023-05-16T04:34:00.821Z,56.25
2023-05-16T04:35:00.966Z,50.62
2023-05-16T04:36:01.344Z,56.25
2023-05-16T04:37:01.589Z,56.25
2023-05-16T04:38:01.948Z,56.25
2023-05-16T04:39:02.295Z,61.88
2023-05-16T04:40:02.658Z,61.88
2023-05-16T04:41:03.026Z,67.50
2023-05-16T04:42:03.414Z,61.88
2023-05-16T04:43:03.675Z,61.88
2023-05-16T04:44:03.933Z,61.88
2023-05-16T04:45:04.219Z,61.88
2023-05-16T04:46:04.603Z,61.88
2023-05-16T04:47:04.815Z,61.88
2023-05-16T04:48:05.302Z,78.75
2023-05-16T04:49:05.517Z,73.12
2023-05-16T04:50:05.919Z,84.38
2023-05-16T04:51:06.180Z,90.00
2023-05-16T04:52:06.446Z,90.00
2023-05-16T04:53:06.707Z,101.25
2023-05-16T04:54:06.952Z,95.62
2023-05-16T04:55:07.313Z,84.38
2023-05-16T04:56:07.700Z,95.62
2023-05-16T04:57:07.963Z,84.38
2023-05-16T04:58:08.220Z,84.38
2023-05-16T04:59:08.463Z,95.62
2023-05-16T05:00:08.831Z,90.00
2023-05-16T05:01:09.133Z,90.00
2023-05-16T05:02:09.488Z,95.62
2023-05-16T05:03:09.772Z,90.00
2023-05-16T05:04:09.967Z,90.00
2023-05-16T05:05:10.377Z,101.25
2023-05-16T05:06:10.541Z,95.62
2023-05-16T05:07:10.784Z,95.62
2023-05-16T05:08:11.178Z,101.25
2023-05-16T05:09:11.420Z,106.88
2023-05-16T05:10:11.784Z,106.88
2023-05-16T05:11:12.028Z,112.50
2023-05-16T05:12:12.426Z,106.88
2023-05-16T05:13:12.656Z,118.12
2023-05-16T05:14:13.023Z,123.75
2023-05-16T05:15:13.282Z,118.12
2023-05-16T05:16:13.691Z,118.12
2023-05-16T05:17:13.963Z,118.12
2023-05-16T05:18:14.449Z,112.50
2023-05-16T05:19:14.551Z,112.50
2023-05-16T05:20:14.793Z,112.50
2023-05-16T05:21:15.164Z,118.12
2023-05-16T05:22:15.449Z,118.12
2023-05-16T05:23:15.693Z,129.38
2023-05-16T05:24:16.076Z,129.38
2023-05-16T05:25:16.328Z,135.00
2023-05-16T05:26:16.692Z,135.00
2023-05-16T05:27:16.952Z,140.62
2023-05-16T05:28:17.329Z,146.25
2023-05-16T05:29:17.602Z,163.12
2023-05-16T05:30:17.873Z,163.12
2023-05-16T05:31:18.108Z,157.50
2023-05-16T05:32:18.488Z,157.50
2023-05-16T05:33:19.653Z,146.25
2023-05-16T05:34:19.098Z,140.62
2023-05-16T05:35:19.450Z,146.25
2023-05-16T05:36:19.806Z,146.25
2023-05-16T05:37:20.066Z,146.25
2023-05-16T05:38:20.317Z,146.25
2023-05-16T05:39:20.557Z,140.62
2023-05-16T05:40:20.925Z,146.25
2023-05-16T05:41:21.159Z,151.88
2023-05-16T05:42:21.530Z,163.12
2023-05-16T05:43:21.774Z,213.75
2023-05-16T05:44:22.198Z,213.75
2023-05-16T05:45:22.444Z,247.50
2023-05-16T05:46:24.123Z,241.88
2023-05-16T05:47:23.037Z,230.62
2023-05-16T05:48:23.236Z,241.88
2023-05-16T05:49:23.597Z,247.50
2023-05-16T05:50:23.869Z,225.00
2023-05-16T05:51:24.218Z,241.88
2023-05-16T05:52:24.573Z,253.12
2023-05-16T05:53:24.839Z,253.12
2023-05-16T05:54:25.155Z,247.50
2023-05-16T05:55:32.444Z,241.88
2023-05-16T05:56:25.764Z,247.50
2023-05-16T05:57:26.114Z,241.88
2023-05-16T05:58:26.353Z,247.50
2023-05-16T05:59:26.604Z,230.62
2023-05-16T06:00:26.958Z,213.75
2023-05-16T06:01:27.267Z,213.75
2023-05-16T06:02:27.641Z,208.12
2023-05-16T06:03:27.819Z,202.50
2023-05-16T06:04:28.162Z,213.75
2023-05-16T06:05:28.706Z,219.38
2023-05-16T06:06:28.669Z,236.25
2023-05-16T06:07:29.037Z,208.12
2023-05-16T06:08:29.266Z,213.75
2023-05-16T06:09:29.633Z,208.12
2023-05-16T06:10:29.887Z,225.00
2023-05-16T06:11:30.226Z,219.38
2023-05-16T06:12:30.479Z,208.12
2023-05-16T06:13:30.732Z,219.38
2023-05-16T06:14:30.949Z,213.75
2023-05-16T06:15:31.305Z,213.75
2023-05-16T06:16:31.670Z,219.38
2023-05-16T06:17:32.071Z,230.62
2023-05-16T06:18:32.314Z,230.62
2023-05-16T06:19:32.696Z,247.50
2023-05-16T06:20:32.945Z,264.38
2023-05-16T06:21:33.306Z,241.88
2023-05-16T06:22:33.554Z,253.12
2023-05-16T06:23:33.796Z,275.62
2023-05-16T06:24:34.165Z,292.50
2023-05-16T06:25:34.528Z,320.62
2023-05-16T06:26:34.770Z,303.75
2023-05-16T06:27:35.043Z,298.12
2023-05-16T06:28:35.323Z,309.38
2023-05-16T06:29:35.575Z,315.00
2023-05-16T06:30:35.801Z,286.88
2023-05-16T06:31:36.248Z,286.88
2023-05-16T06:32:36.467Z,286.88
2023-05-16T06:33:36.821Z,281.25
2023-05-16T06:34:37.061Z,315.00
2023-05-16T06:35:37.432Z,315.00
2023-05-16T06:36:37.727Z,331.88
2023-05-16T06:37:38.054Z,343.12
2023-05-16T06:38:38.280Z,326.25
2023-05-16T06:39:39.136Z,315.00
2023-05-16T06:40:38.951Z,303.75
2023-05-16T06:41:39.279Z,298.12
2023-05-16T06:42:39.669Z,275.62
2023-05-16T06:43:39.893Z,303.75
2023-05-16T06:44:40.137Z,298.12
2023-05-16T06:45:40.397Z,309.38
2023-05-16T06:46:40.644Z,303.75
2023-05-16T06:47:40.987Z,309.38
2023-05-16T06:48:41.207Z,298.12
2023-05-16T06:49:41.581Z,286.88
2023-05-16T06:50:41.813Z,303.75
2023-05-16T06:51:42.197Z,309.38
2023-05-16T06:52:42.450Z,320.62
2023-05-16T06:53:42.736Z,343.12
2023-05-16T06:54:43.017Z,365.62
2023-05-16T06:55:43.274Z,371.25
2023-05-16T06:56:43.504Z,343.12
2023-05-16T06:57:43.907Z,354.38
2023-05-16T06:58:44.163Z,348.75
2023-05-16T06:59:44.446Z,348.75
2023-05-16T07:00:44.718Z,331.88
2023-05-16T07:01:45.067Z,331.88
2023-05-16T07:02:45.301Z,348.75
2023-05-16T07:03:45.646Z,348.75
2023-05-16T07:04:45.784Z,348.75
2023-05-16T07:05:46.140Z,348.75
2023-05-16T07:06:46.374Z,348.75
2023-05-16T07:07:46.755Z,371.25
2023-05-16T07:08:47.002Z,360.00
2023-05-16T07:09:47.358Z,360.00
2023-05-16T07:10:47.598Z,360.00
2023-05-16T07:11:47.874Z,382.50
2023-05-16T07:12:48.136Z,371.25
2023-05-16T07:13:48.404Z,365.62
2023-05-16T07:14:48.674Z,371.25
2023-05-16T07:15:48.903Z,393.75
2023-05-16T07:16:49.176Z,410.62
2023-05-16T07:17:49.553Z,416.25
2023-05-16T07:18:49.799Z,478.12
2023-05-16T07:19:50.041Z,478.12
2023-05-16T07:20:51.347Z,461.25
2023-05-16T07:21:50.700Z,461.25
2023-05-16T07:22:50.943Z,478.12
2023-05-16T07:23:51.199Z,483.75
2023-05-16T07:24:51.466Z,489.38
2023-05-16T07:25:51.738Z,489.38
2023-05-16T07:26:51.964Z,478.12
2023-05-16T07:27:52.347Z,489.38
2023-05-16T07:28:52.589Z,500.62
2023-05-16T07:29:52.938Z,517.50
2023-05-16T07:30:53.176Z,562.50
2023-05-16T07:31:53.504Z,579.38
2023-05-16T07:32:53.840Z,551.25
2023-05-16T07:33:54.102Z,568.12
2023-05-16T07:34:54.327Z,568.12
2023-05-16T07:36:07.970Z,551.25
2023-05-16T07:36:55.940Z,573.75
2023-05-16T07:37:55.314Z,568.12
2023-05-16T07:38:55.565Z,613.12
2023-05-16T07:39:55.917Z,787.50
2023-05-16T07:40:56.131Z,843.75
2023-05-16T07:41:56.478Z,669.38
2023-05-16T07:42:56.862Z,607.50
2023-05-16T07:43:57.105Z,579.38
2023-05-16T07:44:57.500Z,534.38
2023-05-16T07:45:57.769Z,511.88
2023-05-16T07:46:57.982Z,478.12
2023-05-16T07:47:58.385Z,472.50
2023-05-16T07:48:58.457Z,483.75
2023-05-16T07:49:58.807Z,483.75
2023-05-16T07:50:59.042Z,472.50
2023-05-16T07:51:59.288Z,461.25
2023-05-16T07:52:59.522Z,461.25
2023-05-16T07:53:59.758Z,461.25
2023-05-16T07:55:00.012Z,461.25
2023-05-16T07:56:00.410Z,455.62
2023-05-16T07:57:00.591Z,427.50
2023-05-16T07:58:00.871Z,416.25
2023-05-16T07:59:01.133Z,410.62
2023-05-16T08:00:01.350Z,410.62
2023-05-16T08:01:01.571Z,405.00
2023-05-16T08:02:02.155Z,427.50
2023-05-16T08:03:02.250Z,433.12
2023-05-16T08:04:02.483Z,421.88
2023-05-16T08:05:02.700Z,438.75
2023-05-16T08:06:03.163Z,438.75
2023-05-16T08:07:03.328Z,427.50
2023-05-16T08:08:03.584Z,405.00
2023-05-16T08:09:03.816Z,399.38
2023-05-16T08:10:04.070Z,410.62
2023-05-16T08:11:04.270Z,433.12
2023-05-16T08:12:04.609Z,450.00
2023-05-16T08:13:04.956Z,461.25
2023-05-16T08:14:05.185Z,466.88
2023-05-16T08:15:05.452Z,455.62
2023-05-16T08:16:05.696Z,433.12
2023-05-16T08:17:05.936Z,421.88
2023-05-16T08:18:06.379Z,427.50
2023-05-16T08:19:06.648Z,427.50
2023-05-16T08:20:06.865Z,410.62
2023-05-16T08:21:07.089Z,393.75
2023-05-16T08:22:07.441Z,393.75
2023-05-16T08:23:07.708Z,393.75
2023-05-16T08:24:07.944Z,405.00
2023-05-16T08:25:08.169Z,382.50
2023-05-16T08:26:08.533Z,365.62
2023-05-16T08:27:08.890Z,360.00
2023-05-16T08:28:09.148Z,360.00
2023-05-16T08:29:09.370Z,360.00
2023-05-16T08:30:09.746Z,348.75
2023-05-16T08:31:09.999Z,348.75
2023-05-16T08:32:10.245Z,354.38
2023-05-16T08:33:10.586Z,354.38
2023-05-16T08:34:10.922Z,360.00
2023-05-16T08:35:11.197Z,371.25
2023-05-16T08:36:11.375Z,371.25
2023-05-16T08:37:11.619Z,376.88
2023-05-16T08:38:11.873Z,365.62
2023-05-16T08:39:12.147Z,371.25
2023-05-16T08:40:12.365Z,382.50
2023-05-16T08:41:12.605Z,371.25
2023-05-16T08:42:12.864Z,365.62
2023-05-16T08:43:14.036Z,360.00
2023-05-16T08:44:13.470Z,365.62
2023-05-16T08:45:13.938Z,360.00
2023-05-16T08:46:13.967Z,360.00
2023-05-16T08:47:14.304Z,365.62
2023-05-16T08:48:14.573Z,382.50
2023-05-16T08:49:14.811Z,461.25
2023-05-16T08:50:15.167Z,613.12
2023-05-16T08:51:15.389Z,675.00
2023-05-16T08:52:15.733Z,607.50
2023-05-16T08:53:15.978Z,590.62
2023-05-16T08:54:16.221Z,545.62
2023-05-16T08:55:16.461Z,607.50
2023-05-16T08:56:16.815Z,630.00
2023-05-16T08:57:17.053Z,630.00
2023-05-16T08:58:17.458Z,703.12
2023-05-16T08:59:17.703Z,658.12
2023-05-16T09:00:17.942Z,613.12
2023-05-16T09:01:18.261Z,607.50
2023-05-16T09:02:18.478Z,630.00
2023-05-16T09:03:18.727Z,658.12
2023-05-16T09:04:18.974Z,601.88
2023-05-16T09:05:19.179Z,663.75
2023-05-16T09:06:19.528Z,601.88
2023-05-16T09:07:19.771Z,540.00
2023-05-16T09:08:20.039Z,478.12
2023-05-16T09:09:20.283Z,461.25
2023-05-16T09:10:20.654Z,483.75
2023-05-16T09:11:20.885Z,489.38
2023-05-16T09:12:21.138Z,466.88
2023-05-16T09:13:21.364Z,427.50
2023-05-16T09:14:21.634Z,421.88
2023-05-16T09:15:21.856Z,433.12
2023-05-16T09:16:22.216Z,466.88
2023-05-16T09:17:35.868Z,511.88
2023-05-16T09:18:23.821Z,540.00
2023-05-16T09:19:23.012Z,517.50
2023-05-16T09:20:23.284Z,455.62
2023-05-16T09:21:23.570Z,438.75
2023-05-16T09:22:23.765Z,416.25
2023-05-16T09:23:24.020Z,416.25
2023-05-16T09:24:24.242Z,416.25
2023-05-16T09:26:24.748Z,388.12
2023-05-16T09:27:24.975Z,388.12
2023-05-16T09:28:25.225Z,416.25
2023-05-16T09:29:25.477Z,399.38
2023-05-16T09:30:25.725Z,388.12
2023-05-16T09:31:25.990Z,410.62
2023-05-16T09:32:26.327Z,438.75
2023-05-16T09:33:26.581Z,461.25
2023-05-16T09:34:26.808Z,461.25
2023-05-16T09:36:27.405Z,382.50
2023-05-16T09:37:27.636Z,399.38
2023-05-16T09:38:28.033Z,405.00
2023-05-16T09:39:28.254Z,450.00
2023-05-16T09:40:28.605Z,438.75
2023-05-16T09:41:28.867Z,472.50
2023-05-16T09:42:29.098Z,478.12
2023-05-16T09:43:29.466Z,478.12
2023-05-16T09:44:29.717Z,478.12
2023-05-16T09:45:29.935Z,444.38
2023-05-16T09:46:30.371Z,399.38
2023-05-16T09:47:30.616Z,382.50
2023-05-16T09:48:30.896Z,421.88
2023-05-16T09:49:31.148Z,438.75
2023-05-16T09:50:31.399Z,405.00
2023-05-16T09:51:31.667Z,382.50
2023-05-16T09:52:31.985Z,360.00
2023-05-16T09:53:32.239Z,382.50
2023-05-16T09:54:32.466Z,416.25
2023-05-16T09:55:32.733Z,455.62
2023-05-16T09:56:32.956Z,517.50
2023-05-16T09:57:33.226Z,601.88
2023-05-16T09:58:33.527Z,675.00
2023-05-16T09:59:33.732Z,663.75
2023-05-16T10:00:34.098Z,613.12
2023-05-16T10:01:34.313Z,534.38
2023-05-16T10:02:34.707Z,562.50
2023-05-16T10:03:35.064Z,562.50
2023-05-16T10:04:35.297Z,511.88
2023-05-16T10:05:35.514Z,472.50
2023-05-16T10:06:35.738Z,511.88
2023-05-16T10:07:36.087Z,495.00
2023-05-16T10:08:36.424Z,455.62
2023-05-16T10:09:36.631Z,444.38
2023-05-16T10:10:36.863Z,450.00
2023-05-16T10:11:37.233Z,421.88
2023-05-16T10:12:37.455Z,433.12
2023-05-16T10:13:37.858Z,416.25
2023-05-16T10:14:37.972Z,399.38
2023-05-16T10:15:38.324Z,388.12
2023-05-16T10:16:38.640Z,376.88
2023-05-16T10:17:38.866Z,371.25
2023-05-16T10:18:39.097Z,360.00
2023-05-16T10:19:39.336Z,365.62
2023-05-16T10:20:39.541Z,365.62
2023-05-16T10:21:39.898Z,376.88
2023-05-16T10:22:40.136Z,382.50
2023-05-16T10:23:40.493Z,399.38
2023-05-16T10:24:40.713Z,444.38
2023-05-16T10:25:40.978Z,579.38
2023-05-16T10:26:41.207Z,725.62
2023-05-16T10:27:41.560Z,843.75
2023-05-16T10:28:41.881Z,922.50
2023-05-16T10:29:53.454Z,877.50
2023-05-16T10:30:43.354Z,815.62
2023-05-16T10:31:42.631Z,855.00
2023-05-16T10:32:43.078Z,961.88
2023-05-16T10:33:43.130Z,1141.88
2023-05-16T10:34:43.321Z,1074.38
2023-05-16T10:35:43.672Z,866.25
2023-05-16T10:36:43.887Z,770.62
2023-05-16T10:37:44.241Z,669.38
2023-05-16T10:38:44.463Z,551.25
2023-05-16T10:39:44.802Z,478.12
2023-05-16T10:40:45.010Z,421.88
2023-05-16T10:41:45.248Z,393.75
2023-05-16T10:42:45.487Z,376.88
2023-05-16T10:43:45.739Z,365.62
2023-05-16T10:44:54.649Z,360.00
2023-05-16T10:45:47.215Z,348.75
2023-05-16T10:46:46.398Z,343.12
2023-05-16T10:47:46.737Z,326.25
2023-05-16T10:48:47.961Z,320.62
2023-05-16T10:49:47.184Z,303.75
2023-05-16T10:50:47.386Z,303.75
2023-05-16T10:51:47.731Z,309.38
2023-05-16T10:52:47.974Z,309.38
2023-05-16T10:53:48.275Z,298.12
2023-05-16T10:54:48.501Z,292.50
2023-05-16T10:55:48.732Z,298.12
2023-05-16T10:56:48.952Z,309.38
2023-05-16T10:57:49.189Z,382.50
2023-05-16T10:58:49.479Z,450.00
2023-05-16T10:59:49.712Z,500.62
2023-05-16T11:00:50.014Z,573.75
2023-05-16T11:01:50.328Z,641.25
2023-05-16T11:02:50.553Z,725.62
2023-05-16T11:03:50.863Z,798.75
2023-05-16T11:04:51.059Z,860.62
2023-05-16T11:05:51.391Z,905.62
2023-05-16T11:06:51.730Z,922.50
2023-05-16T11:07:52.053Z,922.50
2023-05-16T11:08:52.287Z,984.38
2023-05-16T11:09:52.509Z,956.25
2023-05-16T11:10:52.831Z,894.38
2023-05-16T11:11:53.517Z,849.38
2023-05-16T11:12:53.458Z,838.12
2023-05-16T11:13:53.838Z,877.50
2023-05-16T11:14:54.057Z,781.88
2023-05-16T11:15:54.285Z,725.62
2023-05-16T11:16:54.546Z,720.00
2023-05-16T11:17:54.793Z,765.00
2023-05-16T11:18:55.052Z,714.38
2023-05-16T11:19:55.289Z,697.50
2023-05-16T11:20:55.497Z,669.38
2023-05-16T11:21:55.839Z,646.88
2023-05-16T11:22:56.047Z,697.50
2023-05-16T11:23:56.396Z,663.75
2023-05-16T11:24:56.601Z,607.50
2023-05-16T11:25:56.929Z,562.50
2023-05-16T11:26:57.171Z,590.62
2023-05-16T11:27:57.378Z,618.75
2023-05-16T11:28:57.729Z,652.50
2023-05-16T11:29:59.180Z,663.75
2023-05-16T11:30:58.292Z,646.88
2023-05-16T11:31:58.546Z,635.62
2023-05-16T11:32:58.813Z,585.00
2023-05-16T11:33:59.159Z,618.75
2023-05-16T11:34:59.405Z,646.88
2023-05-16T11:36:13.927Z,613.12
2023-05-16T11:37:00.941Z,556.88
2023-05-16T11:38:00.295Z,568.12
2023-05-16T11:39:00.521Z,540.00
2023-05-16T11:40:00.961Z,528.75
2023-05-16T11:41:01.078Z,607.50
2023-05-16T11:42:01.409Z,680.62
2023-05-16T11:43:01.726Z,765.00
2023-05-16T11:44:02.077Z,838.12
2023-05-16T11:45:02.314Z,888.75
2023-05-16T11:46:03.586Z,961.88
2023-05-16T11:47:02.905Z,984.38
2023-05-16T11:48:03.212Z,956.25
2023-05-16T11:49:03.407Z,950.62
2023-05-16T11:50:03.630Z,967.50
2023-05-16T11:51:03.860Z,933.75
2023-05-16T11:52:04.074Z,922.50
2023-05-16T11:53:04.290Z,1012.50
2023-05-16T11:54:04.667Z,1170.00
2023-05-16T11:56:02.345Z,1434.38
2023-05-16T11:57:02.501Z,1597.50
2023-05-16T11:58:02.638Z,1766.25
2023-05-16T11:59:02.844Z,1755.00
2023-05-16T12:00:02.965Z,1968.75
2023-05-16T12:01:03.107Z,1839.38
2023-05-16T12:02:03.188Z,1755.00
2023-05-16T12:03:03.403Z,1569.38
2023-05-16T12:04:03.656Z,1518.75
2023-05-16T12:05:03.550Z,1276.88
2023-05-16T12:06:03.660Z,1192.50
2023-05-16T12:07:03.757Z,1063.12
2023-05-16T12:08:03.877Z,1068.75
2023-05-16T12:09:03.988Z,1006.88
2023-05-16T12:10:04.126Z,1147.50
2023-05-16T12:11:04.224Z,1265.62
2023-05-16T12:12:04.321Z,1406.25
2023-05-16T12:13:04.564Z,1485.00
2023-05-16T12:14:04.691Z,1575.00
2023-05-16T12:15:04.802Z,1406.25
2023-05-16T12:16:04.895Z,1366.88
2023-05-16T12:17:05.120Z,1282.50
2023-05-16T12:18:05.267Z,1175.62
2023-05-16T12:19:06.454Z,1125.00
2023-05-16T12:20:05.455Z,1057.50
2023-05-16T12:21:05.580Z,990.00
2023-05-16T12:22:05.701Z,871.88
2023-05-16T12:23:05.765Z,753.75
2023-05-16T12:24:05.868Z,720.00
2023-05-16T12:25:06.001Z,686.25
2023-05-16T12:26:06.106Z,641.25
2023-05-16T12:27:06.221Z,585.00
2023-05-16T12:28:06.333Z,540.00
2023-05-16T12:29:06.469Z,511.88
2023-05-16T12:30:06.581Z,495.00
2023-05-16T12:31:09.390Z,495.00
2023-05-16T12:32:08.027Z,489.38
2023-05-16T12:33:08.254Z,500.62
2023-05-16T12:34:07.231Z,523.12
2023-05-16T12:35:07.364Z,540.00
2023-05-16T12:36:07.490Z,551.25
2023-05-16T12:37:07.615Z,568.12
2023-05-16T12:38:07.901Z,590.62
2023-05-16T12:39:09.403Z,585.00
2023-05-16T12:40:08.112Z,562.50
2023-05-16T12:41:08.249Z,523.12
2023-05-16T12:42:08.359Z,506.25
2023-05-16T12:43:08.595Z,489.38
2023-05-16T12:44:08.690Z,466.88
2023-05-16T12:45:08.846Z,450.00
2023-05-16T12:46:09.023Z,466.88
2023-05-16T12:47:09.639Z,528.75
2023-05-16T12:48:09.368Z,663.75
2023-05-16T12:49:09.504Z,860.62
2023-05-16T12:50:09.629Z,939.38